createdAt,value
2019-01-22T00:00:00.258Z,98885.45
2019-01-22T00:02:29.111Z,98892.81
2019-01-22T00:04:57.908Z,98886.81
2019-01-22T00:07:26.996Z,98881.70
2019-01-22T00:09:55.935Z,98893.25
2019-01-22T00:12:24.739Z,98884.47
2019-01-22T00:14:53.547Z,98877.36
2019-01-22T00:17:22.338Z,98875.81
2019-01-22T00:19:51.134Z,98878.37
2019-01-22T00:22:20.002Z,98881.82
2019-01-22T00:24:48.797Z,98877.16
2019-01-22T00:27:17.651Z,98871.23
2019-01-22T00:29:46.460Z,98865.31
2019-01-22T00:32:15.407Z,98863.57
2019-01-22T00:34:44.491Z,98858.30
2019-01-22T00:37:14.412Z,98848.98
2019-01-22T00:39:43.204Z,98850.73
2019-01-22T00:42:12.149Z,98846.74
2019-01-22T00:44:40.943Z,98842.70
2019-01-22T00:47:09.891Z,98843.05
2019-01-22T00:49:38.679Z,98839.71
2019-01-22T00:52:07.496Z,98843.64
2019-01-22T00:54:36.290Z,98844.62
2019-01-22T00:57:05.343Z,98834.41
2019-01-22T00:59:34.134Z,98835.78
2019-01-22T01:02:03.383Z,98841.64
2019-01-22T01:04:32.176Z,98841.19
2019-01-22T01:07:01.010Z,98840.74
2019-01-22T01:09:29.803Z,98833.02
2019-01-22T01:11:58.759Z,98835.67
2019-01-22T01:14:27.548Z,98842.19
2019-01-22T01:16:56.625Z,98839.22
2019-01-22T01:19:25.537Z,98835.71
2019-01-22T01:21:54.393Z,98834.42
2019-01-22T01:24:23.266Z,98840.36
2019-01-22T01:26:52.248Z,98839.26
2019-01-22T01:29:21.045Z,98839.02
2019-01-22T01:31:49.925Z,98840.16
2019-01-22T01:34:18.846Z,98836.67
2019-01-22T01:36:47.669Z,98831.11
2019-01-22T01:39:16.458Z,98827.69
2019-01-22T01:41:46.322Z,98830.16
2019-01-22T01:44:16.372Z,98827.80
2019-01-22T01:46:45.249Z,98828.17
2019-01-22T01:49:14.122Z,98828.17
2019-01-22T01:51:42.927Z,98827.83
2019-01-22T01:54:11.793Z,98826.06
2019-01-22T01:56:40.683Z,98827.64
2019-01-22T01:59:09.754Z,98812.75
2019-01-22T02:01:38.644Z,98814.97
2019-01-22T02:04:07.446Z,98813.34
2019-01-22T02:06:36.301Z,98799.11
2019-01-22T02:09:08.382Z,98793.73
2019-01-22T02:11:37.841Z,98798.94
2019-01-22T02:14:07.858Z,98795.48
2019-01-22T02:16:51.625Z,98791.09
2019-01-22T02:19:34.455Z,98786.76
2019-01-22T02:22:36.279Z,98773.31
2019-01-22T02:25:55.773Z,98770.32
2019-01-22T02:29:07.856Z,98767.47
2019-01-22T02:32:04.173Z,98758.44
2019-01-22T02:34:42.298Z,98748.31
2019-01-22T02:37:54.438Z,98748.31
2019-01-22T02:40:44.742Z,98744.37
2019-01-22T02:44:06.923Z,98730.31
2019-01-22T02:46:47.455Z,98729.09
2019-01-22T02:49:43.415Z,98723.91
2019-01-22T02:53:02.350Z,98715.48
2019-01-22T02:56:11.227Z,98715.81
2019-01-22T02:58:51.511Z,98711.11
2019-01-22T03:01:55.533Z,98718.38
2019-01-22T03:04:40.193Z,98713.25
2019-01-22T03:07:43.180Z,98707.27
2019-01-22T03:11:05.228Z,98702.36
2019-01-22T03:14:12.363Z,98700.83
2019-01-22T03:17:16.399Z,98687.69
2019-01-22T03:20:27.896Z,98687.69
2019-01-22T03:23:22.644Z,98697.45
2019-01-22T03:26:22.561Z,98688.03
2019-01-22T03:29:47.862Z,98688.89
2019-01-22T03:32:50.067Z,98678.72
2019-01-22T03:36:13.143Z,98672.30
2019-01-22T03:38:49.730Z,98667.23
2019-01-22T03:41:53.421Z,98657.31
2019-01-22T03:45:01.214Z,98654.76
2019-01-22T03:48:20.317Z,98647.84
2019-01-22T03:51:10.253Z,98655.57
2019-01-22T03:54:11.397Z,98651.36
2019-01-22T03:56:59.843Z,98646.86
2019-01-22T03:59:29.140Z,98645.08
2019-01-22T04:01:57.979Z,98634.85
2019-01-22T04:04:26.865Z,98633.97
2019-01-22T04:06:58.860Z,98634.91
2019-01-22T04:09:44.653Z,98634.41
2019-01-22T04:12:13.531Z,98633.51
2019-01-22T04:14:42.500Z,98627.86
2019-01-22T04:17:11.409Z,98630.36
2019-01-22T04:19:40.285Z,98624.92
2019-01-22T04:22:13.555Z,98621.19
2019-01-22T04:25:10.935Z,98622.91
2019-01-22T04:28:01.850Z,98621.73
2019-01-22T04:31:01.431Z,98613.17
2019-01-22T04:34:20.917Z,98612.09
2019-01-22T04:37:49.310Z,98613.10
2019-01-22T04:40:49.855Z,98606.73
2019-01-22T04:43:58.436Z,98610.85
2019-01-22T04:46:53.717Z,98602.91
2019-01-22T04:50:00.319Z,98601.22
2019-01-22T04:52:50.827Z,98590.11
2019-01-22T04:55:56.614Z,98594.16
2019-01-22T04:58:43.800Z,98589.04
2019-01-22T05:01:40.554Z,98586.88
2019-01-22T05:04:49.388Z,98578.83
2019-01-22T05:08:10.541Z,98571.12
2019-01-22T05:10:53.192Z,98575.03
2019-01-22T05:13:47.005Z,98574.55
2019-01-22T05:16:56.449Z,98583.02
2019-01-22T05:19:37.810Z,98576.28
2019-01-22T05:22:42.357Z,98579.83
2019-01-22T05:25:36.643Z,98577.48
2019-01-22T05:28:38.916Z,98573.66
2019-01-22T05:31:23.740Z,98563.00
2019-01-22T05:34:27.676Z,98565.23
2019-01-22T05:37:52.976Z,98557.19
2019-01-22T05:40:48.186Z,98557.19
2019-01-22T05:43:26.609Z,98551.25
2019-01-22T05:46:17.874Z,98553.37
2019-01-22T05:49:18.705Z,98552.03
2019-01-22T05:51:57.340Z,98553.15
2019-01-22T05:54:54.351Z,98554.69
2019-01-22T05:57:51.569Z,98542.73
2019-01-22T06:00:32.570Z,98549.81
2019-01-22T06:03:14.859Z,98539.67
2019-01-22T06:05:53.662Z,98540.14
2019-01-22T06:09:15.884Z,98536.27
2019-01-22T06:12:07.124Z,98538.89
2019-01-22T06:15:21.260Z,98526.02
2019-01-22T06:18:27.953Z,98528.52
2019-01-22T06:21:37.928Z,98518.98
2019-01-22T06:24:57.352Z,98516.69
2019-01-22T06:27:33.293Z,98516.38
2019-01-22T06:30:32.851Z,98512.84
2019-01-22T06:33:16.489Z,98509.69
2019-01-22T06:36:17.649Z,98511.27
2019-01-22T06:39:07.708Z,98507.87
2019-01-22T06:42:09.458Z,98497.39
2019-01-22T06:45:15.793Z,98497.39
2019-01-22T06:47:57.786Z,98495.84
2019-01-22T06:50:52.599Z,98498.45
2019-01-22T06:53:43.882Z,98488.60
2019-01-22T06:56:29.846Z,98476.28
2019-01-22T06:59:07.242Z,98476.28
2019-01-22T07:01:54.891Z,98486.17
2019-01-22T07:04:43.957Z,98481.67
2019-01-22T07:07:43.838Z,98480.09
2019-01-22T07:10:37.216Z,98480.83
2019-01-22T07:13:20.905Z,98473.31
2019-01-22T07:16:15.317Z,98467.83
2019-01-22T07:19:04.483Z,98469.93
2019-01-22T07:22:13.482Z,98464.80
2019-01-22T07:25:33.215Z,98458.78
2019-01-22T07:28:28.966Z,98458.41
2019-01-22T07:31:22.981Z,98443.75
2019-01-22T07:34:33.106Z,98433.47
2019-01-22T07:37:35.373Z,98432.02
2019-01-22T07:40:37.311Z,98433.14
2019-01-22T07:43:59.568Z,98433.14
2019-01-22T07:47:00.585Z,98442.98
2019-01-22T07:50:05.215Z,98433.90
2019-01-22T07:53:17.810Z,98436.32
2019-01-22T07:56:19.799Z,98440.43
2019-01-22T07:59:34.688Z,98432.26
2019-01-22T08:02:52.907Z,98423.96
2019-01-22T08:05:59.085Z,98421.44
2019-01-22T08:08:54.085Z,98416.69
2019-01-22T08:12:00.204Z,98423.44
2019-01-22T08:14:59.015Z,98419.19
2019-01-22T08:17:57.432Z,98413.27
2019-01-22T08:20:43.617Z,98414.41
2019-01-22T08:23:41.736Z,98407.57
2019-01-22T08:26:40.178Z,98410.02
2019-01-22T08:30:02.625Z,98405.34
2019-01-22T08:33:27.943Z,98402.78
2019-01-22T08:36:28.678Z,98396.62
2019-01-22T08:39:10.870Z,98400.78
2019-01-22T08:42:22.475Z,98398.11
2019-01-22T08:45:19.865Z,98395.40
2019-01-22T08:48:45.184Z,98383.70
2019-01-22T08:52:04.163Z,98382.77
2019-01-22T08:55:26.414Z,98377.49
2019-01-22T08:58:28.600Z,98376.86
2019-01-22T09:01:21.791Z,98364.54
2019-01-22T09:04:21.516Z,98355.91
2019-01-22T09:07:00.755Z,98359.22
2019-01-22T09:10:08.671Z,98352.06
2019-01-22T09:13:07.449Z,98345.27
2019-01-22T09:16:12.312Z,98339.44
2019-01-22T09:19:16.837Z,98341.38
2019-01-22T09:22:14.869Z,98335.53
2019-01-22T09:24:51.891Z,98333.35
2019-01-22T09:27:55.579Z,98329.19
2019-01-22T09:30:59.117Z,98328.38
2019-01-22T09:33:56.026Z,98327.59
2019-01-22T09:37:11.486Z,98329.09
2019-01-22T09:39:40.491Z,98331.80
2019-01-22T09:42:09.364Z,98313.05
2019-01-22T09:44:38.157Z,98321.72
2019-01-22T09:47:07.124Z,98318.29
2019-01-22T09:49:36.185Z,98315.72
2019-01-22T09:52:05.442Z,98308.37
2019-01-22T09:54:34.777Z,98306.27
2019-01-22T09:57:03.754Z,98300.77
2019-01-22T09:59:32.563Z,98298.16
2019-01-22T10:02:01.588Z,98294.37
2019-01-22T10:04:30.450Z,98293.76
2019-01-22T10:06:59.492Z,98292.83
2019-01-22T10:09:28.489Z,98293.03
2019-01-22T10:11:58.349Z,98281.28
2019-01-22T10:14:27.430Z,98282.27
2019-01-22T10:16:56.361Z,98277.13
2019-01-22T10:19:25.421Z,98278.79
2019-01-22T10:21:54.342Z,98276.94
2019-01-22T10:24:23.210Z,98270.05
2019-01-22T10:26:52.090Z,98269.56
2019-01-22T10:29:20.971Z,98266.38
2019-01-22T10:31:50.474Z,98265.67
2019-01-22T10:34:19.422Z,98264.18
2019-01-22T10:36:48.307Z,98256.49
2019-01-22T10:39:17.899Z,98255.45
2019-01-22T10:41:46.916Z,98253.09
2019-01-22T10:44:15.841Z,98245.38
2019-01-22T10:46:44.652Z,98241.18
2019-01-22T10:49:15.180Z,98227.88
2019-01-22T10:51:44.021Z,98232.81
2019-01-22T10:54:12.859Z,98214.76
2019-01-22T10:56:41.813Z,98205.88
2019-01-22T10:59:10.766Z,98203.09
2019-01-22T11:01:39.648Z,98196.28
2019-01-22T11:04:08.588Z,98188.01
2019-01-22T11:06:37.736Z,98179.73
2019-01-22T11:09:07.879Z,98178.06
2019-01-22T11:11:36.725Z,98177.10
2019-01-22T11:14:05.772Z,98173.92
2019-01-22T11:16:34.578Z,98176.77
2019-01-22T11:19:03.532Z,98171.63
2019-01-22T11:21:32.419Z,98166.59
2019-01-22T11:24:01.435Z,98162.39
2019-01-22T11:26:30.379Z,98162.61
2019-01-22T11:28:59.260Z,98154.47
2019-01-22T11:31:28.045Z,98148.15
2019-01-22T11:33:56.840Z,98145.20
2019-01-22T11:36:25.643Z,98141.35
2019-01-22T11:38:54.512Z,98132.98
2019-01-22T11:41:23.443Z,98125.23
2019-01-22T11:43:52.239Z,98121.77
2019-01-22T11:46:21.191Z,98117.52
2019-01-22T11:48:50.066Z,98112.68
2019-01-22T11:51:18.860Z,98109.38
2019-01-22T11:53:47.657Z,98106.54
2019-01-22T11:56:16.779Z,98095.66
2019-01-22T11:58:45.591Z,98087.94
2019-01-22T12:01:14.543Z,98083.82
2019-01-22T12:03:43.455Z,98077.39
2019-01-22T12:06:12.317Z,98066.61
2019-01-22T12:08:41.202Z,98062.63
2019-01-22T12:11:10.784Z,98050.42
2019-01-22T12:13:39.589Z,98048.31
2019-01-22T12:16:08.393Z,98051.41
2019-01-22T12:18:37.265Z,98044.92
2019-01-22T12:21:06.211Z,98032.96
2019-01-22T12:23:35.090Z,98036.31
2019-01-22T12:26:04.073Z,98023.69
2019-01-22T12:28:33.017Z,98019.72
2019-01-22T12:31:01.842Z,98016.36
2019-01-22T12:33:30.653Z,98008.96
2019-01-22T12:35:59.465Z,98000.48
2019-01-22T12:38:28.290Z,97983.97
2019-01-22T12:40:57.086Z,97983.97
2019-01-22T12:43:25.876Z,97982.13
2019-01-22T12:45:54.739Z,97974.39
2019-01-22T12:48:23.532Z,97966.66
2019-01-22T12:50:52.515Z,97945.17
2019-01-22T12:53:21.410Z,97945.17
2019-01-22T12:55:50.273Z,97952.36
2019-01-22T12:58:19.079Z,97951.84
2019-01-22T13:00:48.037Z,97948.59
2019-01-22T13:03:16.903Z,97935.02
2019-01-22T13:05:52.035Z,97920.83
2019-01-22T13:08:21.021Z,97915.25
2019-01-22T13:10:50.046Z,97908.88
2019-01-22T13:13:18.954Z,97904.03
2019-01-22T13:15:47.933Z,97898.52
2019-01-22T13:18:16.944Z,97894.41
2019-01-22T13:20:45.877Z,97895.25
2019-01-22T13:23:14.967Z,97889.87
2019-01-22T13:25:43.822Z,97882.05
2019-01-22T13:28:12.795Z,97878.05
2019-01-22T13:30:42.721Z,97866.49
2019-01-22T13:33:11.783Z,97863.00
2019-01-22T13:35:40.792Z,97860.29
2019-01-22T13:38:09.599Z,97854.41
2019-01-22T13:40:38.476Z,97849.17
2019-01-22T13:43:07.691Z,97847.38
2019-01-22T13:45:36.987Z,97846.17
2019-01-22T13:48:07.606Z,97838.52
2019-01-22T13:50:36.653Z,97828.41
2019-01-22T13:53:05.922Z,97827.59
2019-01-22T13:55:36.572Z,97823.65
2019-01-22T13:58:05.931Z,97815.05
2019-01-22T14:00:34.955Z,97810.91
2019-01-22T14:03:04.331Z,97809.53
2019-01-22T14:05:33.300Z,97806.86
2019-01-22T14:08:02.184Z,97809.58
2019-01-22T14:10:30.981Z,97800.66
2019-01-22T14:12:59.954Z,97796.56
2019-01-22T14:15:31.295Z,97792.72
2019-01-22T14:18:00.247Z,97788.84
2019-01-22T14:20:29.169Z,97781.01
2019-01-22T14:22:58.035Z,97777.52
2019-01-22T14:25:26.926Z,97774.31
2019-01-22T14:27:55.811Z,97770.02
2019-01-22T14:30:31.030Z,97763.11
2019-01-22T14:32:59.928Z,97763.05
2019-01-22T14:35:28.938Z,97758.42
2019-01-22T14:37:57.907Z,97752.17
2019-01-22T14:40:26.888Z,97752.80
2019-01-22T14:42:56.106Z,97749.47
2019-01-22T14:45:25.059Z,97746.97
2019-01-22T14:47:54.003Z,97744.41
2019-01-22T14:50:24.840Z,97737.56
2019-01-22T14:52:53.716Z,97739.25
2019-01-22T14:55:22.637Z,97737.02
2019-01-22T14:57:51.502Z,97729.80
2019-01-22T15:00:22.470Z,97723.23
2019-01-22T15:02:51.396Z,97714.67
2019-01-22T15:05:20.336Z,97708.59
2019-01-22T15:07:49.313Z,97713.42
2019-01-22T15:10:18.493Z,97701.88
2019-01-22T15:12:48.835Z,97709.88
2019-01-22T15:15:18.329Z,97694.59
2019-01-22T15:17:47.265Z,97693.92
2019-01-22T15:20:18.710Z,97694.14
2019-01-22T15:22:47.660Z,97691.36
2019-01-22T15:25:16.691Z,97691.55
2019-01-22T15:27:45.873Z,97690.33
2019-01-22T15:30:16.997Z,97688.66
2019-01-22T15:32:46.096Z,97688.84
2019-01-22T15:35:16.054Z,97685.16
2019-01-22T15:37:44.924Z,97689.28
2019-01-22T15:40:17.194Z,97686.58
2019-01-22T15:42:46.242Z,97673.41
2019-01-22T15:45:15.188Z,97673.09
2019-01-22T15:47:44.081Z,97673.09
2019-01-22T15:50:13.938Z,97672.89
2019-01-22T15:52:42.881Z,97666.52
2019-01-22T15:55:16.297Z,97665.05
2019-01-22T15:57:45.087Z,97662.58
2019-01-22T16:00:16.621Z,97667.95
2019-01-22T16:02:45.507Z,97655.58
2019-01-22T16:05:14.543Z,97648.27
2019-01-22T16:07:43.368Z,97645.33
2019-01-22T16:10:12.715Z,97637.84
2019-01-22T16:12:41.512Z,97636.39
2019-01-22T16:15:13.007Z,97634.56
2019-01-22T16:17:41.959Z,97631.97
2019-01-22T16:20:16.539Z,97630.82
2019-01-22T16:22:45.352Z,97630.59
2019-01-22T16:25:14.832Z,97627.24
2019-01-22T16:27:43.721Z,97624.84
2019-01-22T16:30:15.237Z,97627.97
2019-01-22T16:32:44.115Z,97625.19
2019-01-22T16:35:14.860Z,97615.39
2019-01-22T16:37:44.008Z,97613.92
2019-01-22T16:40:13.603Z,97609.78
2019-01-22T16:42:42.602Z,97614.02
2019-01-22T16:45:18.295Z,97603.47
2019-01-22T16:47:47.296Z,97609.88
2019-01-22T16:50:16.551Z,97608.91
2019-01-22T16:52:45.509Z,97606.13
2019-01-22T16:55:17.667Z,97597.53
2019-01-22T16:57:46.466Z,97595.34
2019-01-22T17:00:22.086Z,97594.75
2019-01-22T17:02:51.088Z,97586.25
2019-01-22T17:05:20.351Z,97592.65
2019-01-22T17:07:49.469Z,97580.97
2019-01-22T17:10:19.347Z,97590.58
2019-01-22T17:12:49.192Z,97576.74
2019-01-22T17:15:19.297Z,97588.72
2019-01-22T17:17:49.300Z,97578.69
2019-01-22T17:20:27.759Z,97575.75
2019-01-22T17:23:02.690Z,97571.39
2019-01-22T17:25:31.703Z,97570.16
2019-01-22T17:28:00.723Z,97568.13
2019-01-22T17:30:31.029Z,97565.66
2019-01-22T17:33:19.549Z,97564.18
2019-01-22T17:35:49.975Z,97561.34
2019-01-22T17:38:20.903Z,97553.61
2019-01-22T17:40:50.104Z,97556.00
2019-01-22T17:43:19.982Z,97554.91
2019-01-22T17:45:48.769Z,97550.70
2019-01-22T17:48:17.670Z,97548.28
2019-01-22T17:50:46.757Z,97546.82
2019-01-22T17:53:15.601Z,97539.62
2019-01-22T17:55:44.465Z,97543.30
2019-01-22T17:58:13.337Z,97529.20
2019-01-22T18:00:42.629Z,97527.66
2019-01-22T18:03:11.577Z,97529.02
2019-01-22T18:05:40.445Z,97521.65
2019-01-22T18:08:09.834Z,97521.45
2019-01-22T18:10:38.919Z,97518.13
2019-01-22T18:13:07.870Z,97516.37
2019-01-22T18:15:36.789Z,97507.39
2019-01-22T18:18:06.244Z,97511.64
2019-01-22T18:20:35.098Z,97507.77
2019-01-22T18:23:03.970Z,97501.52
2019-01-22T18:25:32.925Z,97498.63
2019-01-22T18:28:01.912Z,97494.75
2019-01-22T18:30:30.795Z,97495.77
2019-01-22T18:32:59.656Z,97499.30
2019-01-22T18:35:42.675Z,97490.80
2019-01-22T18:38:13.870Z,97487.78
2019-01-22T18:40:42.698Z,97480.48
2019-01-22T18:43:11.602Z,97485.46
2019-01-22T18:45:40.539Z,97486.04
2019-01-22T18:48:09.426Z,97482.07
2019-01-22T18:50:38.305Z,97478.20
2019-01-22T18:53:07.181Z,97473.69
2019-01-22T18:55:36.090Z,97472.75
2019-01-22T18:58:05.189Z,97469.62
2019-01-22T19:00:34.076Z,97468.23
2019-01-22T19:03:03.063Z,97464.81
2019-01-22T19:05:32.051Z,97467.39
2019-01-22T19:08:00.898Z,97464.45
2019-01-22T19:10:29.830Z,97459.59
2019-01-22T19:12:58.786Z,97466.48
2019-01-22T19:15:27.757Z,97460.67
2019-01-22T19:17:56.724Z,97455.98
2019-01-22T19:20:25.560Z,97459.69
2019-01-22T19:22:54.518Z,97453.60
2019-01-22T19:25:25.507Z,97451.86
2019-01-22T19:27:54.367Z,97452.41
2019-01-22T19:30:25.809Z,97456.73
2019-01-22T19:32:54.709Z,97451.76
2019-01-22T19:35:24.013Z,97450.92
2019-01-22T19:37:52.878Z,97446.98
2019-01-22T19:40:21.879Z,97450.47
2019-01-22T19:42:50.880Z,97444.61
2019-01-22T19:45:23.109Z,97444.61
2019-01-22T19:47:51.976Z,97435.38
2019-01-22T19:50:20.961Z,97436.50
2019-01-22T19:52:49.860Z,97431.98
2019-01-22T19:55:18.856Z,97431.52
2019-01-22T19:57:47.752Z,97429.47
2019-01-22T20:00:22.370Z,97436.78
2019-01-22T20:02:51.250Z,97428.75
2019-01-22T20:05:20.711Z,97428.02
2019-01-22T20:07:49.871Z,97423.30
2019-01-22T20:10:18.861Z,97424.75
2019-01-22T20:12:47.728Z,97424.11
2019-01-22T20:15:16.785Z,97410.26
2019-01-22T20:17:45.751Z,97410.26
2019-01-22T20:20:16.799Z,97409.16
2019-01-22T20:22:45.791Z,97406.08
2019-01-22T20:25:15.471Z,97400.77
2019-01-22T20:27:48.360Z,97399.08
2019-01-22T20:30:32.545Z,97396.04
2019-01-22T20:33:01.425Z,97394.45
2019-01-22T20:35:30.333Z,97397.58
2019-01-22T20:37:59.285Z,97398.97
2019-01-22T20:40:28.245Z,97396.39
2019-01-22T20:42:57.178Z,97390.94
2019-01-22T20:45:27.846Z,97391.22
2019-01-22T20:47:56.707Z,97394.64
2019-01-22T20:50:25.793Z,97389.48
2019-01-22T20:52:54.791Z,97387.16
2019-01-22T20:55:23.805Z,97386.52
2019-01-22T20:57:54.959Z,97387.55
2019-01-22T21:00:24.074Z,97381.30
2019-01-22T21:02:53.469Z,97375.30
2019-01-22T21:05:24.263Z,97379.91
2019-01-22T21:07:53.439Z,97376.34
2019-01-22T21:10:30.570Z,97375.65
2019-01-22T21:12:59.512Z,97373.34
2019-01-22T21:15:28.565Z,97365.88
2019-01-22T21:17:57.804Z,97365.42
2019-01-22T21:20:26.751Z,97362.48
2019-01-22T21:22:55.610Z,97365.71
2019-01-22T21:25:24.737Z,97364.87
2019-01-22T21:27:53.742Z,97363.95
2019-01-22T21:30:33.863Z,97361.20
2019-01-22T21:33:03.283Z,97363.69
2019-01-22T21:35:32.305Z,97364.32
2019-01-22T21:38:01.169Z,97354.45
2019-01-22T21:40:30.040Z,97355.09
2019-01-22T21:42:59.002Z,97360.26
2019-01-22T21:45:27.913Z,97352.52
2019-01-22T21:47:56.759Z,97349.49
2019-01-22T21:50:25.814Z,97352.33
2019-01-22T21:52:54.777Z,97350.69
2019-01-22T21:55:23.741Z,97350.88
2019-01-22T21:57:52.684Z,97350.88
2019-01-22T22:02:40.234Z,97345.62
2019-01-22T22:05:10.841Z,97346.07
2019-01-22T22:07:39.787Z,97348.00
2019-01-22T22:10:11.884Z,97346.97
2019-01-22T22:12:40.932Z,97343.48
2019-01-22T22:15:11.138Z,97336.30
2019-01-22T22:17:39.942Z,97337.39
2019-01-22T22:20:11.390Z,97336.29
2019-01-22T22:22:40.347Z,97337.92
2019-01-22T22:25:11.033Z,97341.84
2019-01-22T22:27:39.909Z,97334.06
2019-01-22T22:30:21.070Z,97333.00
2019-01-22T22:32:49.989Z,97333.00
2019-01-22T22:35:18.919Z,97339.01
2019-01-22T22:37:47.815Z,97337.50
2019-01-22T22:40:17.043Z,97334.58
2019-01-22T22:42:45.922Z,97333.59
2019-01-22T22:45:16.602Z,97331.72
2019-01-22T22:47:45.536Z,97321.00
2019-01-22T22:50:17.672Z,97325.06
2019-01-22T22:52:46.499Z,97316.41
2019-01-22T22:55:15.555Z,97316.02
2019-01-22T22:57:44.366Z,97314.59
2019-01-22T23:00:43.060Z,97317.64
2019-01-22T23:03:12.663Z,97304.09
2019-01-22T23:05:41.609Z,97304.68
2019-01-22T23:08:10.575Z,97305.97
2019-01-22T23:10:39.450Z,97303.03
2019-01-22T23:13:08.328Z,97302.40
2019-01-22T23:15:37.275Z,97300.27
2019-01-22T23:18:06.424Z,97298.86
2019-01-22T23:20:35.215Z,97295.92
2019-01-22T23:23:04.383Z,97290.77
2019-01-22T23:25:33.300Z,97288.50
2019-01-22T23:28:02.339Z,97292.55
2019-01-22T23:30:31.397Z,97284.23
2019-01-22T23:33:00.272Z,97280.81
2019-01-22T23:35:29.144Z,97279.49
2019-01-22T23:37:57.948Z,97278.90
2019-01-22T23:40:26.868Z,97278.17
2019-01-22T23:42:55.667Z,97281.38
2019-01-22T23:45:24.565Z,97274.31
2019-01-22T23:47:53.470Z,97268.33
2019-01-22T23:50:22.328Z,97272.58
2019-01-22T23:52:51.128Z,97264.52
2019-01-22T23:55:19.913Z,97260.66
2019-01-22T23:57:49.195Z,97251.69
